Time;durP1;ratioP1;P1;durP2;ratioP2;P2;SDS_P1;SDS_P2;PMS_P1;PMS_P2;Temp;Humidity;BMP_temperature;BMP_pressure;BME280_temperature;BME280_humidity;BME280_pressure;Samples;Min_cycle;Max_cycle;Signal;HPM_P1;HPM_P2
2022/07/22 00:00:45;;;;;;;1.00;0.40;;;;;;;14.84;100.00;100532.84;7394461;19;20011;-54
2022/07/22 00:03:11;;;;;;;1.13;0.25;;;;;;;14.85;100.00;100534.41;7391703;19;20021;-53
2022/07/22 00:05:37;;;;;;;0.10;0.10;;;;;;;14.85;100.00;100531.59;7392067;19;20030;-53
2022/07/22 00:08:03;;;;;;;0.22;0.15;;;;;;;14.85;100.00;100525.19;7389463;19;20017;-53
2022/07/22 00:10:30;;;;;;;2.97;0.35;;;;;;;14.85;100.00;100525.97;7390548;19;20014;-53
2022/07/22 00:12:56;;;;;;;1.98;0.45;;;;;;;14.81;100.00;100525.38;7391055;19;20006;-54
2022/07/22 00:15:22;;;;;;;0.10;0.10;;;;;;;14.77;100.00;100524.81;7388978;19;20033;-53
2022/07/22 00:17:48;;;;;;;1.65;0.40;;;;;;;14.78;100.00;100526.38;7389748;19;20038;-53
2022/07/22 00:20:15;;;;;;;0.30;0.20;;;;;;;14.76;100.00;100528.91;7391119;19;20090;-53
2022/07/22 00:22:41;;;;;;;0.52;0.20;;;;;;;14.73;100.00;100529.88;7391212;19;20006;-53
2022/07/22 00:25:08;;;;;;;1.60;0.20;;;;;;;14.69;100.00;100534.91;7388943;19;20019;-54
2022/07/22 00:27:34;;;;;;;3.35;0.32;;;;;;;14.67;100.00;100537.44;7393848;19;20015;-53
2022/07/22 00:30:00;;;;;;;1.17;0.50;;;;;;;14.67;100.00;100531.81;7389859;19;20011;-54
2022/07/22 00:32:26;;;;;;;1.38;0.13;;;;;;;14.69;100.00;100534.13;7389797;19;20015;-53
2022/07/22 00:34:53;;;;;;;1.52;0.60;;;;;;;14.72;100.00;100530.38;7390559;19;20532;-53
2022/07/22 00:37:19;;;;;;;5.18;0.17;;;;;;;14.75;100.00;100532.97;7392995;19;20562;-53
2022/07/22 00:39:45;;;;;;;7.22;0.68;;;;;;;14.79;100.00;100522.31;7389700;19;20010;-53
2022/07/22 00:42:11;;;;;;;0.82;0.70;;;;;;;14.82;100.00;100521.34;7390774;19;20017;-53
2022/07/22 00:44:37;;;;;;;0.30;0.28;;;;;;;14.84;100.00;100523.66;7390656;19;20031;-53
2022/07/22 00:47:04;;;;;;;1.63;0.88;;;;;;;14.85;100.00;100519.59;7391500;19;20486;-53
2022/07/22 00:49:30;;;;;;;0.30;0.10;;;;;;;14.86;100.00;100512.72;7389528;19;20022;-53
2022/07/22 00:51:56;;;;;;;0.10;0.10;;;;;;;14.85;100.00;100511.97;7389831;19;20017;-54
2022/07/22 00:54:23;;;;;;;5.32;0.68;;;;;;;14.84;100.00;100516.00;7390711;19;20783;-53
2022/07/22 00:56:49;;;;;;;0.68;0.40;;;;;;;14.81;100.00;100514.19;7390610;19;20550;-53
2022/07/22 00:59:16;;;;;;;0.10;0.10;;;;;;;14.77;100.00;100512.88;7389137;19;20029;-54
2022/07/22 01:01:42;;;;;;;0.10;0.10;;;;;;;14.75;100.00;100509.78;7389795;19;20018;-53
2022/07/22 01:04:08;;;;;;;0.98;0.30;;;;;;;14.74;100.00;100509.00;7390311;19;20410;-53
2022/07/22 01:06:34;;;;;;;0.30;0.10;;;;;;;14.72;100.00;100503.09;7396949;19;20432;-53
2022/07/22 01:09:01;;;;;;;1.13;0.10;;;;;;;14.75;100.00;100504.16;7396852;19;20010;-53
2022/07/22 01:11:27;;;;;;;0.88;0.50;;;;;;;14.77;100.00;100508.00;7396185;19;20015;-53
2022/07/22 01:13:55;;;;;;;0.52;0.10;;;;;;;14.79;100.00;100508.28;7397194;19;20022;-53
2022/07/22 01:16:22;;;;;;;0.25;0.20;;;;;;;14.82;100.00;100504.50;7398751;19;20007;-53
2022/07/22 01:18:48;;;;;;;0.50;0.28;;;;;;;14.83;100.00;100494.06;7396867;19;20014;-53
2022/07/22 01:21:16;;;;;;;3.42;0.52;;;;;;;14.85;100.00;100497.16;7394915;19;20054;-53
2022/07/22 01:23:42;;;;;;;3.53;0.20;;;;;;;14.87;100.00;100501.03;7398535;19;20086;-54
2022/07/22 01:26:09;;;;;;;1.75;0.30;;;;;;;14.85;100.00;100500.75;7398372;19;20072;-54
2022/07/22 01:28:36;;;;;;;0.20;0.10;;;;;;;14.85;100.00;100497.94;7391222;19;20447;-53
2022/07/22 01:31:02;;;;;;;0.82;0.45;;;;;;;14.84;100.00;100490.78;7396393;19;20672;-53
2022/07/22 01:33:29;;;;;;;0.65;0.28;;;;;;;14.84;100.00;100496.38;7395201;19;20014;-53
2022/07/22 01:35:55;;;;;;;0.32;0.15;;;;;;;14.84;100.00;100485.16;7397423;19;20014;-53
2022/07/22 01:38:22;;;;;;;0.70;0.20;;;;;;;14.80;100.00;100489.44;7397432;19;20015;-53
2022/07/22 01:40:48;;;;;;;1.98;0.32;;;;;;;14.79;100.00;100494.25;7394513;19;20644;-53
2022/07/22 01:43:17;;;;;;;1.17;0.22;;;;;;;14.82;100.00;100486.91;7394401;19;20463;-52
2022/07/22 01:45:45;;;;;;;1.15;0.30;;;;;;;14.81;100.00;100476.97;7393014;19;20047;-53
2022/07/22 01:48:11;;;;;;;1.55;0.32;;;;;;;14.85;100.00;100486.72;7391330;19;20010;-53
2022/07/22 01:50:37;;;;;;;0.45;0.40;;;;;;;14.86;100.00;100477.03;7393704;19;20015;-53
2022/07/22 01:53:05;;;;;;;1.20;0.50;;;;;;;14.95;100.00;100482.50;7395369;19;20011;-53
2022/07/22 01:55:31;;;;;;;0.40;0.20;;;;;;;14.98;100.00;100478.75;7393054;19;20011;-53
2022/07/22 01:57:57;;;;;;;0.20;0.20;;;;;;;15.00;100.00;100481.03;7395443;19;20336;-53
2022/07/22 02:00:26;;;;;;;0.90;0.43;;;;;;;14.94;100.00;100483.00;7396083;19;20366;-53
2022/07/22 02:02:52;;;;;;;0.43;0.20;;;;;;;15.01;100.00;100480.53;7392579;19;20010;-53
2022/07/22 02:05:18;;;;;;;0.32;0.30;;;;;;;15.04;100.00;100476.75;7391744;19;20011;-52
2022/07/22 02:07:45;;;;;;;1.27;0.20;;;;;;;15.07;100.00;100467.34;7391063;19;20006;-53
2022/07/22 02:10:11;;;;;;;1.17;0.25;;;;;;;15.05;100.00;100472.69;7391754;19;20062;-53
2022/07/22 02:12:38;;;;;;;1.33;0.32;;;;;;;15.12;100.00;100463.06;7392752;19;20782;-53
2022/07/22 02:15:05;;;;;;;0.35;0.10;;;;;;;15.15;100.00;100470.50;7391756;19;20006;-53
2022/07/22 02:17:33;;;;;;;1.90;0.30;;;;;;;15.15;100.00;100462.88;7394691;19;20014;-53
2022/07/22 02:20:00;;;;;;;0.30;0.30;;;;;;;15.15;100.00;100460.06;7392027;19;20535;-53
2022/07/22 02:22:27;;;;;;;3.08;0.20;;;;;;;15.16;100.00;100461.59;7393821;19;20007;-53
2022/07/22 02:24:53;;;;;;;0.30;0.20;;;;;;;15.17;100.00;100463.16;7391971;19;20039;-53
2022/07/22 02:27:19;;;;;;;1.08;0.28;;;;;;;15.17;100.00;100462.38;7396171;19;20018;-53
2022/07/22 02:29:46;;;;;;;1.95;0.55;;;;;;;15.16;100.00;100461.59;7391269;19;20045;-53
2022/07/22 02:32:12;;;;;;;2.40;0.40;;;;;;;15.18;100.00;100458.31;7389671;19;20018;-53
2022/07/22 02:34:38;;;;;;;6.88;0.70;;;;;;;15.15;100.00;100460.06;7391796;19;20022;-53
2022/07/22 02:37:05;;;;;;;0.75;0.20;;;;;;;15.15;100.00;100459.28;7397225;19;20006;-53
2022/07/22 02:39:31;;;;;;;0.30;0.28;;;;;;;15.17;100.00;100465.19;7392073;19;20018;-53
2022/07/22 02:41:57;;;;;;;0.17;0.17;;;;;;;15.20;100.00;100458.59;7393372;19;20025;-53
2022/07/22 02:44:24;;;;;;;2.40;0.30;;;;;;;15.23;100.00;100459.63;7393564;19;20021;-53
2022/07/22 02:46:51;;;;;;;2.95;0.10;;;;;;;15.24;100.00;100459.16;7394931;19;20012;-53
2022/07/22 02:49:25;;;;;;;0.65;0.10;;;;;;;15.22;100.00;100452.47;7391902;19;20048;-53
2022/07/22 02:51:51;;;;;;;0.93;0.38;;;;;;;15.24;100.00;100452.75;7391389;19;20014;-53
2022/07/22 02:54:18;;;;;;;0.68;0.38;;;;;;;15.19;100.00;100449.41;7395382;19;20031;-53
2022/07/22 02:56:44;;;;;;;0.70;0.17;;;;;;;15.27;100.00;100449.72;7392009;19;20034;-53
2022/07/22 02:59:10;;;;;;;6.60;0.30;;;;;;;15.28;100.00;100450.50;7392896;19;20038;-53
2022/07/22 03:01:36;;;;;;;0.77;0.22;;;;;;;15.30;100.00;100450.78;7393140;19;20463;-53
2022/07/22 03:04:02;;;;;;;0.22;0.20;;;;;;;15.35;100.00;100455.69;7393657;19;20011;-53
2022/07/22 03:06:32;;;;;;;0.30;0.20;;;;;;;15.39;100.00;100453.44;7394516;19;20006;-53
2022/07/22 03:09:07;;;;;;;0.52;0.43;;;;;;;15.40;100.00;100450.13;7392449;19;20464;-53
2022/07/22 03:11:35;;;;;;;0.10;0.10;;;;;;;15.43;100.00;100439.94;7391811;19;20014;-53
2022/07/22 03:14:04;;;;;;;0.10;0.10;;;;;;;15.44;100.00;100441.53;7391754;19;20096;-53
2022/07/22 03:16:30;;;;;;;0.60;0.10;;;;;;;15.47;100.00;100434.91;7393597;19;20018;-53
2022/07/22 03:18:56;;;;;;;0.13;0.10;;;;;;;15.45;100.00;100434.63;7390589;19;20016;-53
2022/07/22 03:21:23;;;;;;;0.95;0.10;;;;;;;15.48;100.00;100428.03;7390660;19;20094;-53
2022/07/22 03:23:53;;;;;;;1.17;0.55;;;;;;;15.48;100.00;100425.25;7394020;19;20006;-53
2022/07/22 03:26:21;;;;;;;1.05;0.28;;;;;;;15.49;100.00;100418.34;7393434;19;20010;-53
2022/07/22 03:28:47;;;;;;;0.13;0.10;;;;;;;15.48;100.00;100422.44;7389074;19;20021;-53
2022/07/22 03:31:13;;;;;;;0.10;0.10;;;;;;;15.48;100.00;100420.41;7390947;19;20024;-53
2022/07/22 03:33:40;;;;;;;0.95;0.43;;;;;;;15.49;100.00;100418.34;7393367;19;20036;-53
2022/07/22 03:36:08;;;;;;;0.63;0.30;;;;;;;15.53;100.00;100411.25;7392303;19;20014;-53
2022/07/22 03:38:36;;;;;;;1.23;0.13;;;;;;;15.56;100.00;100410.25;7389566;19;20039;-53
2022/07/22 03:41:03;;;;;;;3.67;0.28;;;;;;;15.56;100.00;100421.50;7391006;19;20011;-53
2022/07/22 03:43:30;;;;;;;5.15;1.17;;;;;;;15.59;100.00;100412.06;7391107;19;20006;-53
2022/07/22 03:45:57;;;;;;;1.27;0.93;;;;;;;15.61;100.00;100417.19;7391414;19;20027;-53
2022/07/22 03:48:23;;;;;;;1.10;0.30;;;;;;;15.61;100.00;100422.81;7389108;19;20032;-53
2022/07/22 03:50:49;;;;;;;2.58;0.65;;;;;;;15.60;100.00;100421.25;7390651;19;20022;-53
2022/07/22 03:53:16;;;;;;;0.20;0.20;;;;;;;15.59;100.00;100419.72;7391685;19;20014;-53
2022/07/22 03:55:42;;;;;;;0.65;0.30;;;;;;;15.55;100.00;100422.00;7391806;19;20035;-53
2022/07/22 03:58:09;;;;;;;0.85;0.22;;;;;;;15.53;100.00;100422.47;7390202;19;20010;-53
2022/07/22 04:00:35;;;;;;;0.20;0.10;;;;;;;15.54;100.00;100412.03;7393527;19;20017;-53
2022/07/22 04:03:04;;;;;;;0.10;0.10;;;;;;;15.53;100.00;100410.47;7392721;19;20014;-53
2022/07/22 04:05:49;;;;;;;0.52;0.20;;;;;;;15.51;100.00;100415.81;7392375;19;20014;-53
2022/07/22 04:08:24;;;;;;;1.15;0.32;;;;;;;15.45;100.00;100412.19;7388788;19;20019;-53
2022/07/22 04:10:51;;;;;;;0.85;0.47;;;;;;;15.43;100.00;100406.25;7390723;19;20025;-53
2022/07/22 04:13:17;;;;;;;0.30;0.30;;;;;;;15.39;100.00;100397.31;7389757;19;20015;-53
2022/07/22 04:15:49;;;;;;;0.35;0.10;;;;;;;15.36;100.00;100401.09;7390069;19;20014;-53
2022/07/22 04:18:17;;;;;;;0.75;0.20;;;;;;;15.31;100.00;100401.81;7391456;19;20476;-53
2022/07/22 04:20:43;;;;;;;0.32;0.13;;;;;;;15.29;100.00;100404.34;7389924;19;20014;-53
2022/07/22 04:23:33;;;;;;;1.67;0.20;;;;;;;15.25;100.00;100400.97;7392521;19;20361;-53
2022/07/22 04:26:14;;;;;;;0.45;0.20;;;;;;;15.19;100.00;100401.69;7391149;19;20011;-53
2022/07/22 04:28:40;;;;;;;4.72;0.20;;;;;;;15.17;100.00;100401.44;7386666;19;20042;-53
2022/07/22 04:31:07;;;;;;;0.50;0.15;;;;;;;15.13;100.00;100411.31;7389138;19;20074;-53
2022/07/22 04:33:35;;;;;;;0.10;0.00;;;;;;;15.12;100.00;100404.94;7389299;19;20018;-53
2022/07/22 04:36:02;;;;;;;0.43;0.28;;;;;;;15.11;100.00;100406.22;7390038;19;20011;-53
2022/07/22 04:38:28;;;;;;;0.45;0.20;;;;;;;15.13;100.00;100412.09;7388588;19;20021;-53
2022/07/22 04:41:03;;;;;;;0.50;0.30;;;;;;;15.14;100.00;100413.63;7391437;19;20034;-53
2022/07/22 04:43:30;;;;;;;0.52;0.17;;;;;;;15.11;100.00;100411.03;7388562;19;20006;-53
2022/07/22 04:45:56;;;;;;;0.20;0.20;;;;;;;15.12;100.00;100410.53;7391657;19;20570;-53
2022/07/22 04:48:25;;;;;;;2.97;0.47;;;;;;;15.12;100.00;100404.94;7387478;19;20281;-52
2022/07/22 04:50:53;;;;;;;0.10;0.10;;;;;;;15.14;100.00;100419.22;7388897;19;20078;-53
2022/07/22 04:53:19;;;;;;;0.73;0.47;;;;;;;15.14;100.00;100408.00;7391164;19;20022;-53
2022/07/22 04:55:46;;;;;;;0.20;0.10;;;;;;;15.16;100.00;100411.09;7389434;19;20431;-53
2022/07/22 04:58:12;;;;;;;0.85;0.55;;;;;;;15.15;100.00;100420.78;7388242;19;20400;-52
2022/07/22 05:00:38;;;;;;;0.20;0.20;;;;;;;15.14;100.00;100415.66;7392780;19;20456;-52
2022/07/22 05:03:05;;;;;;;0.93;0.30;;;;;;;15.12;100.00;100416.16;7388562;19;20025;-52
2022/07/22 05:05:31;;;;;;;0.40;0.10;;;;;;;15.10;100.00;100415.88;7390114;19;20009;-52
2022/07/22 05:07:57;;;;;;;1.58;0.57;;;;;;;15.08;100.00;100426.81;7388812;19;20011;-52
2022/07/22 05:10:24;;;;;;;0.57;0.25;;;;;;;15.07;100.00;100424.53;7387673;19;20011;-52
2022/07/22 05:12:50;;;;;;;0.10;0.10;;;;;;;15.06;100.00;100429.34;7387758;19;20019;-52
2022/07/22 05:15:17;;;;;;;4.85;0.40;;;;;;;15.04;100.00;100429.06;7389677;19;20014;-52
2022/07/22 05:17:44;;;;;;;0.10;0.00;;;;;;;15.01;100.00;100437.69;7387906;19;20007;-53
2022/07/22 05:20:18;;;;;;;0.65;0.43;;;;;;;14.98;100.00;100436.66;7388439;19;20011;-54
2022/07/22 05:22:44;;;;;;;4.22;0.45;;;;;;;14.99;100.00;100440.22;7390995;19;20467;-54
2022/07/22 05:25:17;;;;;;;0.90;0.28;;;;;;;14.95;100.00;100446.06;7388420;19;20034;-54
2022/07/22 05:27:55;;;;;;;0.65;0.32;;;;;;;14.92;100.00;100441.41;7387093;19;20463;-54
2022/07/22 05:30:26;;;;;;;0.60;0.00;;;;;;;14.89;100.00;100436.81;7386515;19;20011;-54
2022/07/22 05:32:53;;;;;;;0.82;0.20;;;;;;;14.88;100.00;100446.47;7387808;19;20007;-54
2022/07/22 05:35:33;;;;;;;0.95;0.30;;;;;;;14.87;100.00;100439.31;7387907;19;20032;-55
2022/07/22 05:37:59;;;;;;;1.65;0.30;;;;;;;14.88;100.00;100438.06;7388859;19;20015;-55
2022/07/22 05:40:26;;;;;;;0.17;0.15;;;;;;;14.83;100.00;100444.38;7388122;19;20027;-55
2022/07/22 05:42:52;;;;;;;5.22;0.20;;;;;;;14.82;100.00;100448.44;7387250;19;20010;-55
2022/07/22 05:45:18;;;;;;;1.08;0.38;;;;;;;14.82;100.00;100442.03;7387429;19;20017;-55
2022/07/22 05:47:44;;;;;;;0.28;0.28;;;;;;;14.82;100.00;100436.44;7385008;19;20006;-55
2022/07/22 05:50:11;;;;;;;0.45;0.30;;;;;;;14.80;100.00;100442.53;7390360;19;20010;-55
2022/07/22 05:52:38;;;;;;;1.00;0.28;;;;;;;14.77;100.00;100435.09;7394672;19;20018;-56
2022/07/22 05:55:06;;;;;;;5.03;0.10;;;;;;;14.78;100.00;100438.69;7394305;19;20006;-56
2022/07/22 05:57:32;;;;;;;1.35;0.45;;;;;;;14.77;100.00;100429.50;7397648;19;20038;-56
2022/07/22 05:59:58;;;;;;;12.32;0.30;;;;;;;14.76;100.00;100433.56;7396414;19;20018;-56
2022/07/22 06:02:25;;;;;;;0.45;0.20;;;;;;;14.77;100.00;100434.34;7393577;19;20492;-56
2022/07/22 06:04:51;;;;;;;1.70;0.20;;;;;;;14.76;100.00;100439.19;7392621;19;20060;-56
2022/07/22 06:07:18;;;;;;;1.10;0.45;;;;;;;14.76;100.00;100432.78;7396306;19;20603;-56
2022/07/22 06:09:49;;;;;;;0.57;0.40;;;;;;;14.74;100.00;100435.31;7393879;19;20014;-56
2022/07/22 06:12:15;;;;;;;0.45;0.10;;;;;;;14.74;100.00;100436.09;7393289;19;20227;-55
2022/07/22 06:14:41;;;;;;;0.90;0.30;;;;;;;14.76;100.00;100441.97;7392918;19;20019;-56
2022/07/22 06:17:08;;;;;;;0.68;0.10;;;;;;;14.78;100.00;100442.25;7396101;19;20014;-55
2022/07/22 06:19:34;;;;;;;1.58;0.30;;;;;;;14.77;100.00;100434.34;7393725;19;20479;-56
2022/07/22 06:22:00;;;;;;;2.40;0.68;;;;;;;14.79;100.00;100435.38;7394976;19;20455;-55
2022/07/22 06:24:27;;;;;;;0.70;0.38;;;;;;;14.82;100.00;100434.41;7397717;19;20015;-55
2022/07/22 06:27:34;;;;;;;3.97;0.55;;;;;;;14.84;100.00;100439.53;7396749;19;20031;-55
2022/07/22 06:33:54;;;;;;;1.70;0.30;;;;;;;14.84;100.00;100457.13;7389897;19;20036;-55
2022/07/22 06:40:09;;;;;;;2.05;0.65;;;;;;;14.80;100.00;100450.19;7392706;19;20374;-55
2022/07/22 06:42:52;;;;;;;0.30;0.30;;;;;;;14.80;100.00;100444.56;7393696;19;20014;-56
2022/07/22 06:45:44;;;;;;;0.30;0.28;;;;;;;14.82;100.00;100437.22;7391896;19;20070;-57
2022/07/22 06:48:18;;;;;;;0.50;0.17;;;;;;;14.82;100.00;100442.81;7386957;19;20011;-56
2022/07/22 06:50:45;;;;;;;0.65;0.20;;;;;;;14.84;100.00;100440.28;7390457;19;20010;-56
2022/07/22 06:53:15;;;;;;;0.28;0.10;;;;;;;14.86;100.00;100440.56;7392617;19;20013;-56
2022/07/22 06:55:42;;;;;;;2.33;0.30;;;;;;;14.88;100.00;100449.25;7392200;19;20010;-56
2022/07/22 06:58:11;;;;;;;1.05;0.17;;;;;;;14.85;100.00;100444.66;7391583;19;20014;-56
2022/07/22 07:00:37;;;;;;;1.05;0.28;;;;;;;14.84;100.00;100445.91;7395551;19;20042;-56
2022/07/22 07:03:29;;;;;;;0.40;0.38;;;;;;;14.83;100.00;100449.22;7390581;19;20011;-56
2022/07/22 07:05:59;;;;;;;0.13;0.13;;;;;;;14.82;100.00;100439.25;7391055;19;20006;-56
2022/07/22 07:08:29;;;;;;;0.95;0.20;;;;;;;14.80;100.00;100450.97;7390083;19;20535;-56
2022/07/22 07:10:55;;;;;;;0.55;0.30;;;;;;;14.81;100.00;100448.94;7392879;19;20021;-56
2022/07/22 07:13:21;;;;;;;0.40;0.10;;;;;;;14.78;100.00;100447.88;7390513;19;20014;-56
2022/07/22 07:15:48;;;;;;;1.80;0.45;;;;;;;14.75;100.00;100446.03;7390346;19;20077;-55
2022/07/22 07:18:14;;;;;;;0.45;0.30;;;;;;;14.78;100.00;100452.69;7389036;19;20010;-55
2022/07/22 07:20:41;;;;;;;1.23;0.30;;;;;;;14.75;100.00;100445.28;7389697;19;20487;-56
2022/07/22 07:23:10;;;;;;;1.27;0.40;;;;;;;14.74;100.00;100447.31;7392017;19;20074;-56
2022/07/22 07:25:41;;;;;;;4.65;0.70;;;;;;;14.75;100.00;100443.22;7390471;19;20018;-55
2022/07/22 07:28:08;;;;;;;1.65;0.30;;;;;;;14.75;100.00;100448.84;7391097;19;20011;-56
2022/07/22 07:30:53;;;;;;;0.20;0.20;;;;;;;14.76;100.00;100450.41;7390627;19;20459;-56
2022/07/22 07:33:21;;;;;;;0.15;0.10;;;;;;;14.80;100.00;100436.94;7390149;19;20048;-59
2022/07/22 07:35:47;;;;;;;0.88;0.30;;;;;;;14.80;100.00;100431.31;7392419;19;20011;-57
2022/07/22 07:38:17;;;;;;;0.22;0.13;;;;;;;14.83;100.00;100438.00;7390208;19;20468;-57
2022/07/22 07:40:43;;;;;;;1.00;0.32;;;;;;;14.81;100.00;100432.84;7390884;19;20021;-56
2022/07/22 07:43:12;;;;;;;3.70;0.40;;;;;;;14.80;100.00;100445.34;7389553;19;20497;-56
2022/07/22 07:45:39;;;;;;;0.50;0.30;;;;;;;14.83;100.00;100452.78;7390947;19;20011;-57
2022/07/22 07:48:06;;;;;;;0.45;0.17;;;;;;;14.85;100.00;100453.06;7390968;19;20013;-56
2022/07/22 07:50:33;;;;;;;0.93;0.30;;;;;;;14.87;100.00;100444.94;7390430;19;20014;-56
2022/07/22 07:52:59;;;;;;;0.55;0.28;;;;;;;14.92;100.00;100440.66;7389272;19;20541;-57
2022/07/22 07:55:26;;;;;;;0.82;0.20;;;;;;;14.96;100.00;100435.59;7390542;19;20021;-57
2022/07/22 07:57:53;;;;;;;0.65;0.40;;;;;;;14.98;100.00;100436.66;7389609;19;20629;-57
2022/07/22 08:00:23;;;;;;;1.63;0.63;;;;;;;15.01;100.00;100430.06;7393211;19;20029;-57
2022/07/22 08:02:50;;;;;;;2.30;0.30;;;;;;;15.06;100.00;100440.56;7389583;19;20018;-57
2022/07/22 08:05:19;;;;;;;0.43;0.10;;;;;;;15.13;100.00;100434.53;7389603;19;20039;-57
2022/07/22 08:07:45;;;;;;;0.47;0.30;;;;;;;15.14;100.00;100435.28;7390032;19;20030;-57
2022/07/22 08:10:11;;;;;;;0.28;0.10;;;;;;;15.15;100.00;100428.44;7389269;19;20348;-56
2022/07/22 08:12:57;;;;;;;0.82;0.20;;;;;;;15.14;100.00;100440.91;7389637;19;20010;-56
2022/07/22 08:15:41;;;;;;;0.95;0.38;;;;;;;15.13;100.00;100433.75;7387438;19;20014;-56
2022/07/22 08:18:17;;;;;;;0.20;0.20;;;;;;;15.12;100.00;100432.22;7389215;19;20471;-56
2022/07/22 08:20:43;;;;;;;0.82;0.15;;;;;;;15.09;100.00;100433.97;7388279;19;20010;-56
2022/07/22 08:23:12;;;;;;;1.45;0.25;;;;;;;15.11;100.00;100425.84;7390742;19;20007;-56
2022/07/22 08:25:40;;;;;;;0.75;0.15;;;;;;;15.14;100.00;100419.22;7389125;19;20045;-56
2022/07/22 08:28:06;;;;;;;3.42;0.60;;;;;;;15.19;100.00;100432.56;7386807;19;20075;-56
2022/07/22 08:30:34;;;;;;;0.80;0.10;;;;;;;15.18;100.00;100427.47;7388500;19;20021;-56
2022/07/22 08:33:00;;;;;;;0.30;0.10;;;;;;;15.20;100.00;100425.69;7388047;19;20010;-57
2022/07/22 08:35:26;;;;;;;0.57;0.10;;;;;;;15.30;100.00;100428.31;7390578;19;20011;-57
2022/07/22 08:37:53;;;;;;;0.10;0.10;;;;;;;15.31;100.00;100432.69;7388433;19;20007;-56
2022/07/22 08:40:20;;;;;;;0.52;0.20;;;;;;;15.37;100.00;100419.47;7390176;19;20010;-56
2022/07/22 08:42:48;;;;;;;0.28;0.20;;;;;;;15.42;100.00;100419.53;7389577;19;20433;-56
2022/07/22 08:45:17;;;;;;;0.20;0.20;;;;;;;15.45;100.00;100420.59;7387670;19;20070;-58
2022/07/22 08:47:51;;;;;;;1.17;0.40;;;;;;;15.44;100.00;100419.06;7392341;19;20021;-56
2022/07/22 08:50:36;;;;;;;1.65;0.30;;;;;;;15.50;100.00;100422.72;7388662;19;20014;-57
2022/07/22 08:53:32;;;;;;;0.82;0.20;;;;;;;15.51;100.00;100418.63;7391053;19;20015;-57
2022/07/22 08:56:04;;;;;;;1.02;0.22;;;;;;;15.50;100.00;100411.47;7388022;19;20010;-56
2022/07/22 08:58:31;;;;;;;0.20;0.10;;;;;;;15.48;100.00;100417.59;7389102;19;20006;-57
2022/07/22 09:01:11;;;;;;;0.98;0.30;;;;;;;15.48;100.00;100417.59;7388160;19;20106;-58
2022/07/22 09:03:56;;;;;;;1.17;0.25;;;;;;;15.43;100.00;100417.50;7387212;19;20028;-58
2022/07/22 09:06:33;;;;;;;0.77;0.28;;;;;;;15.44;100.00;100422.63;7389442;19;20042;-57
2022/07/22 09:09:01;;;;;;;5.38;0.68;;;;;;;15.42;100.00;100422.34;7384629;19;20021;-57
2022/07/22 09:11:46;;;;;;;0.30;0.20;;;;;;;15.44;100.00;100421.88;7394458;19;20503;-57
2022/07/22 09:14:50;;;;;;;0.85;0.35;;;;;;;15.46;100.00;100422.16;7385596;19;20010;-56
2022/07/22 09:17:36;;;;;;;0.75;0.10;;;;;;;15.51;100.00;100421.41;7394099;19;20011;-57
2022/07/22 09:20:25;;;;;;;2.50;0.43;;;;;;;15.49;100.00;100404.31;7389120;19;20010;-57
2022/07/22 09:23:23;;;;;;;3.63;0.77;;;;;;;15.48;100.00;100402.78;7389833;19;20337;-56
2022/07/22 09:25:51;;;;;;;1.23;0.40;;;;;;;15.51;100.00;100418.63;7390788;19;20488;-57
2022/07/22 09:28:56;;;;;;;2.72;0.25;;;;;;;15.52;100.00;100408.94;7389367;19;20086;-57
2022/07/22 09:31:31;;;;;;;0.75;0.40;;;;;;;15.54;100.00;100412.03;7395659;19;20029;-57
2022/07/22 09:34:06;;;;;;;0.20;0.15;;;;;;;15.55;100.00;100405.91;7394449;19;20263;-57
2022/07/22 09:36:53;;;;;;;0.40;0.40;;;;;;;15.59;100.00;100409.25;7397545;19;20010;-57
2022/07/22 09:39:32;;;;;;;0.47;0.32;;;;;;;15.59;100.00;100414.13;7394985;19;20010;-57
2022/07/22 09:42:03;;;;;;;1.42;0.40;;;;;;;15.61;100.00;100405.97;7394823;19;20519;-57
2022/07/22 09:44:29;;;;;;;1.65;0.55;;;;;;;15.64;100.00;100407.75;7392711;19;20022;-57
2022/07/22 09:46:59;;;;;;;1.77;0.57;;;;;;;15.72;100.00;100404.00;7399580;19;20023;-57
2022/07/22 09:49:43;;;;;;;0.43;0.32;;;;;;;15.84;100.00;100399.25;7398502;19;20010;-57
2022/07/22 09:52:38;;;;;;;1.05;0.50;;;;;;;15.97;100.00;100410.84;7395921;19;20018;-58
2022/07/22 09:55:07;;;;;;;0.65;0.40;;;;;;;16.03;100.00;100406.03;7398738;19;20011;-58
2022/07/22 09:57:34;;;;;;;0.75;0.65;;;;;;;16.06;100.00;100398.66;7403075;19;20038;-58
2022/07/22 10:00:01;;;;;;;1.98;0.40;;;;;;;16.10;100.00;100405.59;7400857;19;20474;-58
2022/07/22 10:02:53;;;;;;;2.65;0.52;;;;;;;16.11;100.00;100404.34;7396379;19;20059;-55
2022/07/22 10:05:22;;;;;;;4.05;0.90;;;;;;;16.22;100.00;100404.38;7396580;19;20011;-57
2022/07/22 10:07:49;;;;;;;3.72;0.50;;;;;;;16.26;100.00;100410.56;7392150;19;20014;-55
2022/07/22 10:10:18;;;;;;;7.07;0.47;;;;;;;16.28;100.00;100402.41;7395231;19;20455;-58
2022/07/22 10:12:48;;;;;;;1.23;0.30;;;;;;;16.37;100.00;100398.63;7394500;19;20031;-58
2022/07/22 10:15:15;;;;;;;0.90;0.45;;;;;;;16.44;100.00;100395.31;7395349;19;20502;-58
2022/07/22 10:17:48;;;;;;;0.85;0.32;;;;;;;16.52;100.00;100385.94;7392864;19;20015;-58
2022/07/22 10:20:18;;;;;;;1.60;0.40;;;;;;;16.54;100.00;100386.22;7391916;19;20380;-57
2022/07/22 10:22:47;;;;;;;1.20;0.17;;;;;;;16.60;100.00;100387.00;7392967;19;20011;-58
2022/07/22 10:25:15;;;;;;;1.40;0.30;;;;;;;16.65;100.00;100385.50;7393014;19;20033;-58
2022/07/22 10:27:44;;;;;;;1.75;0.63;;;;;;;16.76;100.00;100387.59;7392218;19;20022;-58
2022/07/22 10:30:13;;;;;;;4.53;0.40;;;;;;;16.85;100.00;100381.75;7394934;19;20463;-57
2022/07/22 10:32:39;;;;;;;3.10;0.30;;;;;;;16.90;100.00;100383.78;7394389;19;20014;-57
2022/07/22 10:35:08;;;;;;;3.83;0.50;;;;;;;16.88;100.00;100375.88;7394947;19;20014;-57
2022/07/22 10:37:34;;;;;;;2.08;0.30;;;;;;;16.93;100.00;100377.16;7396486;19;20010;-57
2022/07/22 10:40:12;;;;;;;3.63;0.55;;;;;;;17.01;100.00;100366.94;7393530;19;20019;-57
2022/07/22 10:42:57;;;;;;;3.20;0.88;;;;;;;17.12;100.00;100364.16;7394840;19;20043;-58
2022/07/22 10:45:35;;;;;;;2.15;1.13;;;;;;;17.22;100.00;100357.00;7394124;19;20485;-58
2022/07/22 10:48:09;;;;;;;2.67;0.40;;;;;;;17.24;100.00;100351.63;7392396;19;20032;-58
2022/07/22 10:50:35;;;;;;;1.35;0.68;;;;;;;17.29;100.00;100356.53;7393948;19;20389;-58
2022/07/22 10:53:03;;;;;;;1.25;0.45;;;;;;;17.34;100.00;100355.75;7394926;19;20010;-58
2022/07/22 10:55:30;;;;;;;2.70;0.88;;;;;;;17.32;100.00;100345.03;7393083;19;20343;-58
2022/07/22 10:57:56;;;;;;;1.63;0.45;;;;;;;17.52;100.00;100344.00;7391421;19;20022;-58
2022/07/22 11:00:23;;;;;;;0.73;0.43;;;;;;;17.77;100.00;100343.00;7394609;19;20035;-58
2022/07/22 11:02:49;;;;;;;3.47;1.08;;;;;;;18.00;100.00;100344.50;7392284;19;20017;-58
2022/07/22 11:05:27;;;;;;;3.40;0.73;;;;;;;18.15;100.00;100339.34;7393712;19;20747;-58
2022/07/22 11:07:53;;;;;;;1.17;0.73;;;;;;;18.21;100.00;100335.75;7391722;19;20014;-58
2022/07/22 11:10:21;;;;;;;1.70;0.60;;;;;;;18.22;100.00;100334.47;7392642;19;20081;-58
2022/07/22 11:12:49;;;;;;;3.83;0.65;;;;;;;18.16;100.00;100323.97;7393114;19;20010;-58
2022/07/22 11:15:15;;;;;;;2.60;0.65;;;;;;;18.21;100.00;100327.28;7392520;19;20109;-58
2022/07/22 11:17:42;;;;;;;1.58;0.43;;;;;;;18.27;100.00;100326.00;7391051;19;20018;-58
2022/07/22 11:20:13;;;;;;;5.32;0.43;;;;;;;18.27;100.00;100322.41;7393267;19;20077;-58
2022/07/22 11:22:39;;;;;;;2.80;0.60;;;;;;;18.27;100.00;100323.19;7393521;19;20728;-58
2022/07/22 11:25:07;;;;;;;7.78;0.80;;;;;;;18.35;100.00;100329.03;7392838;19;20359;-58
2022/07/22 11:27:34;;;;;;;0.82;0.43;;;;;;;18.40;100.00;100316.97;7395717;19;20018;-58
2022/07/22 11:30:00;;;;;;;2.83;0.77;;;;;;;18.40;100.00;100320.56;7392983;19;20002;-58
2022/07/22 11:32:31;;;;;;;0.95;0.22;;;;;;;18.41;100.00;100321.34;7392589;19;20019;-58
2022/07/22 11:34:58;;;;;;;;;;;;;;;18.40;100.00;100319.78;7392874;19;20022;-58